Altinopolis, Brazil
Current Conditions -  °F | °C
As of 12:00 AM on Monday 22 Dec 2014 (Local Time) from SBRP Reporting Station
Overcast Overcast  
Wind Chill: 72°   Ceiling: 7000
Heat Index: 72°   Visibility: 6mi
Dew Point: 70°   Wind: 0mph
Humidity: 94%   Direction: NA
Pressure: 29.97"   Gusts: NA
Location:  21.03°S, 47.37°W
Report Text: SBRP 220200Z 00000KT 9999 FEW015 OVC070 22/21 Q1015
Loading
Personal Weather Stations






























Interactive Weather Map New forecast layout! Learn more

10-Day Weather Forecast

Advertisements
Track Severe Weather on mobile